Tarrant West's Hourly Summary for Wednesday, July 11, 2018
Hour Temp
(f)
RH
(%)
Solar Rad.
(MJ/m2)
Rainfall
(in)
Wind
(mph)
7/11/2018 12:00 AM 76 81 0 0 4.59
7/11/2018 1:00 AM 75 80 0 0 3.62
7/11/2018 2:00 AM 75 79 0 0 3.91
7/11/2018 3:00 AM 74 80 0 0 3.27
7/11/2018 4:00 AM 74 81 0 0 3.89
7/11/2018 5:00 AM 73 84 0 0 4.09
7/11/2018 6:00 AM 74 84 0.01 0 2.98
7/11/2018 7:00 AM 74 86 0.14 0 3.91
7/11/2018 8:00 AM 77 79 0.48 0 4.42
7/11/2018 9:00 AM 80 71 0.56 0 4.71
7/11/2018 10:00 AM 83 62 1.09 0 5.61
7/11/2018 11:00 AM 87 54 1.65 0 6.06
7/11/2018 12:00 PM 90 48 2.35 0 4.02
7/11/2018 1:00 PM 92 43 2.24 0 3.49
7/11/2018 2:00 PM 94 33 2.92 0 5
7/11/2018 3:00 PM 95 32 2.04 0 5.43
7/11/2018 4:00 PM 96 33 2.36 0 7.44
7/11/2018 5:00 PM 96 34 1.95 0 6.55
7/11/2018 6:00 PM 92 41 0.98 0 10.41
7/11/2018 7:00 PM 92 39 0.76 0 9.63
7/11/2018 8:00 PM 90 41 0.19 0 6.97
7/11/2018 9:00 PM 87 48 0 0 5.14
7/11/2018 10:00 PM 85 49 0 0 5.05
7/11/2018 11:00 PM 84 53 0 0 6.3
Data Summary 83 58 19.72 0.00 5.27